sensor_id;sensor_type;location;lat;lon;timestamp;pressure;altitude;pressure_sealevel;temperature;humidity
61055;BME280;46939;48.940;8.258;2022-12-18T00:00:08;101607.28;;;0.09;42.32
61055;BME280;46939;48.940;8.258;2022-12-18T00:02:37;101612.00;;;0.03;42.56
61055;BME280;46939;48.940;8.258;2022-12-18T00:05:06;101609.84;;;-0.05;42.93
61055;BME280;46939;48.940;8.258;2022-12-18T00:07:35;101615.25;;;0.06;42.73
61055;BME280;46939;48.940;8.258;2022-12-18T00:10:06;101627.19;;;0.10;42.69
61055;BME280;46939;48.940;8.258;2022-12-18T00:12:34;101617.38;;;-0.01;42.88
61055;BME280;46939;48.940;8.258;2022-12-18T00:15:06;101612.47;;;0.09;42.94
61055;BME280;46939;48.940;8.258;2022-12-18T00:17:35;101614.38;;;0.21;42.73
61055;BME280;46939;48.940;8.258;2022-12-18T00:20:04;101607.97;;;0.27;42.64
61055;BME280;46939;48.940;8.258;2022-12-18T00:22:32;101610.66;;;0.26;42.55
61055;BME280;46939;48.940;8.258;2022-12-18T00:25:01;101619.03;;;0.31;42.33
61055;BME280;46939;48.940;8.258;2022-12-18T00:27:29;101621.44;;;0.19;42.91
61055;BME280;46939;48.940;8.258;2022-12-18T00:29:57;101623.03;;;0.22;42.89
61055;BME280;46939;48.940;8.258;2022-12-18T00:32:28;101621.00;;;0.27;42.92
61055;BME280;46939;48.940;8.258;2022-12-18T00:34:57;101628.63;;;0.30;42.29
61055;BME280;46939;48.940;8.258;2022-12-18T00:37:25;101623.69;;;0.26;42.48
61055;BME280;46939;48.940;8.258;2022-12-18T00:39:53;101629.16;;;0.21;42.12
61055;BME280;46939;48.940;8.258;2022-12-18T00:42:22;101635.50;;;0.17;42.88
61055;BME280;46939;48.940;8.258;2022-12-18T00:45:14;101628.59;;;0.16;42.50
61055;BME280;46939;48.940;8.258;2022-12-18T00:47:45;101620.47;;;0.06;42.77
61055;BME280;46939;48.940;8.258;2022-12-18T00:50:13;101618.41;;;-0.03;42.76
61055;BME280;46939;48.940;8.258;2022-12-18T00:52:42;101618.63;;;0.08;42.95
61055;BME280;46939;48.940;8.258;2022-12-18T00:55:11;101613.34;;;0.24;42.24
61055;BME280;46939;48.940;8.258;2022-12-18T00:57:39;101612.97;;;0.30;41.67
61055;BME280;46939;48.940;8.258;2022-12-18T01:00:11;101626.22;;;0.27;41.91
61055;BME280;46939;48.940;8.258;2022-12-18T01:02:40;101620.41;;;0.22;41.61
61055;BME280;46939;48.940;8.258;2022-12-18T01:05:12;101616.97;;;0.21;41.80
61055;BME280;46939;48.940;8.258;2022-12-18T01:07:40;101628.00;;;0.11;41.28
61055;BME280;46939;48.940;8.258;2022-12-18T01:10:12;101622.78;;;-0.04;42.46
61055;BME280;46939;48.940;8.258;2022-12-18T01:12:40;101620.13;;;0.12;42.18
61055;BME280;46939;48.940;8.258;2022-12-18T01:15:10;101620.75;;;0.02;42.93
61055;BME280;46939;48.940;8.258;2022-12-18T01:17:39;101616.66;;;-0.03;43.24
61055;BME280;46939;48.940;8.258;2022-12-18T01:20:12;101611.00;;;0.05;43.04
61055;BME280;46939;48.940;8.258;2022-12-18T01:22:41;101609.44;;;0.17;43.34
61055;BME280;46939;48.940;8.258;2022-12-18T01:25:09;101615.13;;;0.23;42.73
61055;BME280;46939;48.940;8.258;2022-12-18T01:27:37;101608.59;;;0.16;42.88
61055;BME280;46939;48.940;8.258;2022-12-18T01:30:07;101607.16;;;-0.04;42.93
61055;BME280;46939;48.940;8.258;2022-12-18T01:32:35;101606.50;;;0.07;42.99
61055;BME280;46939;48.940;8.258;2022-12-18T01:35:05;101613.25;;;0.26;42.20
61055;BME280;46939;48.940;8.258;2022-12-18T01:37:36;101631.00;;;0.19;42.29
61055;BME280;46939;48.940;8.258;2022-12-18T01:40:07;101633.06;;;0.14;42.59
61055;BME280;46939;48.940;8.258;2022-12-18T01:42:35;101627.28;;;0.23;42.46
61055;BME280;46939;48.940;8.258;2022-12-18T01:45:23;101630.94;;;0.20;42.39
61055;BME280;46939;48.940;8.258;2022-12-18T01:47:54;101628.50;;;0.17;42.02
61055;BME280;46939;48.940;8.258;2022-12-18T01:50:25;101627.13;;;0.12;42.32
61055;BME280;46939;48.940;8.258;2022-12-18T01:53:01;101619.47;;;0.09;42.25
61055;BME280;46939;48.940;8.258;2022-12-18T01:55:32;101617.75;;;0.08;42.57
61055;BME280;46939;48.940;8.258;2022-12-18T01:58:03;101633.63;;;0.19;41.96
61055;BME280;46939;48.940;8.258;2022-12-18T02:00:33;101632.59;;;0.21;41.78
61055;BME280;46939;48.940;8.258;2022-12-18T02:03:02;101624.56;;;0.10;42.10
61055;BME280;46939;48.940;8.258;2022-12-18T02:05:38;101625.28;;;-0.02;41.83
61055;BME280;46939;48.940;8.258;2022-12-18T02:08:16;101642.16;;;0.07;41.57
61055;BME280;46939;48.940;8.258;2022-12-18T02:10:53;101645.78;;;0.04;41.38
61055;BME280;46939;48.940;8.258;2022-12-18T02:13:30;101631.88;;;-0.11;41.51
61055;BME280;46939;48.940;8.258;2022-12-18T02:16:03;101636.81;;;-0.06;41.41
61055;BME280;46939;48.940;8.258;2022-12-18T02:18:35;101650.53;;;-0.18;42.03
61055;BME280;46939;48.940;8.258;2022-12-18T02:21:10;101632.53;;;-0.07;41.87
61055;BME280;46939;48.940;8.258;2022-12-18T02:23:49;101632.63;;;-0.09;42.02
61055;BME280;46939;48.940;8.258;2022-12-18T02:26:26;101630.69;;;-0.05;42.30
61055;BME280;46939;48.940;8.258;2022-12-18T02:29:01;101636.81;;;-0.06;42.58
61055;BME280;46939;48.940;8.258;2022-12-18T02:31:36;101637.38;;;-0.01;42.15
61055;BME280;46939;48.940;8.258;2022-12-18T02:34:08;101642.09;;;0.08;41.74
61055;BME280;46939;48.940;8.258;2022-12-18T02:36:40;101637.56;;;-0.04;42.11
61055;BME280;46939;48.940;8.258;2022-12-18T02:39:12;101636.72;;;-0.05;42.17
61055;BME280;46939;48.940;8.258;2022-12-18T02:41:44;101629.50;;;0.01;41.53
61055;BME280;46939;48.940;8.258;2022-12-18T02:44:14;101638.13;;;-0.29;41.84
61055;BME280;46939;48.940;8.258;2022-12-18T02:46:45;101635.69;;;-0.32;42.31
61055;BME280;46939;48.940;8.258;2022-12-18T02:49:26;101629.88;;;-0.21;41.99
61055;BME280;46939;48.940;8.258;2022-12-18T02:52:06;101630.97;;;-0.26;42.02
61055;BME280;46939;48.940;8.258;2022-12-18T02:54:42;101637.03;;;0.05;41.38
61055;BME280;46939;48.940;8.258;2022-12-18T02:57:20;101635.22;;;-0.09;41.27
61055;BME280;46939;48.940;8.258;2022-12-18T02:59:56;101655.56;;;0.01;41.48
61055;BME280;46939;48.940;8.258;2022-12-18T03:02:30;101656.81;;;-0.07;41.61
61055;BME280;46939;48.940;8.258;2022-12-18T03:05:05;101645.03;;;0.02;41.29
61055;BME280;46939;48.940;8.258;2022-12-18T03:07:38;101647.53;;;0.04;41.25
61055;BME280;46939;48.940;8.258;2022-12-18T03:10:12;101643.31;;;-0.13;41.11
61055;BME280;46939;48.940;8.258;2022-12-18T03:12:47;101647.19;;;-0.20;41.19
61055;BME280;46939;48.940;8.258;2022-12-18T03:15:21;101649.22;;;-0.26;41.26
61055;BME280;46939;48.940;8.258;2022-12-18T03:17:58;101647.72;;;-0.30;40.95
61055;BME280;46939;48.940;8.258;2022-12-18T03:20:29;101653.25;;;-0.52;41.51
61055;BME280;46939;48.940;8.258;2022-12-18T03:23:04;101655.44;;;-0.76;41.85
61055;BME280;46939;48.940;8.258;2022-12-18T03:25:38;101662.69;;;-0.65;42.17
61055;BME280;46939;48.940;8.258;2022-12-18T03:28:12;101660.91;;;-0.80;42.65
61055;BME280;46939;48.940;8.258;2022-12-18T03:30:41;101663.53;;;-0.64;42.69
61055;BME280;46939;48.940;8.258;2022-12-18T03:33:15;101647.97;;;-0.50;42.31
61055;BME280;46939;48.940;8.258;2022-12-18T03:35:46;101650.38;;;-0.31;41.77
61055;BME280;46939;48.940;8.258;2022-12-18T03:38:14;101654.41;;;-0.26;41.83
61055;BME280;46939;48.940;8.258;2022-12-18T03:40:58;101643.94;;;-0.40;41.90
61055;BME280;46939;48.940;8.258;2022-12-18T03:43:36;101636.53;;;-0.32;42.17
61055;BME280;46939;48.940;8.258;2022-12-18T03:46:10;101610.91;;;-0.39;41.71
61055;BME280;46939;48.940;8.258;2022-12-18T03:48:44;101604.22;;;-0.59;41.49
61055;BME280;46939;48.940;8.258;2022-12-18T03:51:26;101630.47;;;-0.32;40.99
61055;BME280;46939;48.940;8.258;2022-12-18T03:53:59;101623.25;;;-0.27;40.61
61055;BME280;46939;48.940;8.258;2022-12-18T03:56:31;101623.38;;;-0.44;40.59
61055;BME280;46939;48.940;8.258;2022-12-18T03:59:04;101628.25;;;-0.70;41.79
61055;BME280;46939;48.940;8.258;2022-12-18T04:01:38;101628.16;;;-0.53;41.53
61055;BME280;46939;48.940;8.258;2022-12-18T04:04:08;101631.28;;;-0.46;41.42
61055;BME280;46939;48.940;8.258;2022-12-18T04:06:38;101621.09;;;-0.51;42.11
61055;BME280;46939;48.940;8.258;2022-12-18T04:09:08;101635.34;;;-0.26;42.34
61055;BME280;46939;48.940;8.258;2022-12-18T04:11:36;101644.25;;;-0.14;43.09
61055;BME280;46939;48.940;8.258;2022-12-18T04:14:07;101641.19;;;-0.07;43.19
61055;BME280;46939;48.940;8.258;2022-12-18T04:16:35;101623.34;;;0.02;43.32
61055;BME280;46939;48.940;8.258;2022-12-18T04:19:04;101625.78;;;0.19;43.33
61055;BME280;46939;48.940;8.258;2022-12-18T04:21:32;101630.50;;;0.28;43.25
61055;BME280;46939;48.940;8.258;2022-12-18T04:24:01;101630.97;;;0.35;43.30
61055;BME280;46939;48.940;8.258;2022-12-18T04:26:29;101619.44;;;0.39;43.66
61055;BME280;46939;48.940;8.258;2022-12-18T04:28:57;101616.91;;;0.52;43.42
61055;BME280;46939;48.940;8.258;2022-12-18T04:31:28;101614.13;;;0.55;43.68
61055;BME280;46939;48.940;8.258;2022-12-18T04:33:56;101620.91;;;0.57;44.54
61055;BME280;46939;48.940;8.258;2022-12-18T04:36:25;101624.94;;;0.77;44.31
61055;BME280;46939;48.940;8.258;2022-12-18T04:38:55;101633.56;;;0.92;44.26
61055;BME280;46939;48.940;8.258;2022-12-18T04:41:23;101640.84;;;0.87;44.32
61055;BME280;46939;48.940;8.258;2022-12-18T04:43:52;101627.63;;;0.76;44.88
61055;BME280;46939;48.940;8.258;2022-12-18T04:46:20;101627.34;;;0.80;45.21
61055;BME280;46939;48.940;8.258;2022-12-18T04:48:51;101639.25;;;0.84;44.60
61055;BME280;46939;48.940;8.258;2022-12-18T04:51:22;101628.56;;;0.89;44.71
61055;BME280;46939;48.940;8.258;2022-12-18T04:53:54;101621.75;;;0.86;44.61
61055;BME280;46939;48.940;8.258;2022-12-18T04:56:22;101633.69;;;0.90;44.29
61055;BME280;46939;48.940;8.258;2022-12-18T04:58:51;101633.41;;;0.95;44.22
61055;BME280;46939;48.940;8.258;2022-12-18T05:01:19;101629.22;;;0.92;44.13
61055;BME280;46939;48.940;8.258;2022-12-18T05:03:53;101643.00;;;0.94;43.99
61055;BME280;46939;48.940;8.258;2022-12-18T05:06:21;101650.66;;;0.97;44.43
61055;BME280;46939;48.940;8.258;2022-12-18T05:08:50;101659.19;;;1.00;44.31
61055;BME280;46939;48.940;8.258;2022-12-18T05:11:18;101657.72;;;0.95;43.86
61055;BME280;46939;48.940;8.258;2022-12-18T05:13:46;101646.16;;;1.00;43.82
61055;BME280;46939;48.940;8.258;2022-12-18T05:16:15;101658.66;;;0.94;44.11
61055;BME280;46939;48.940;8.258;2022-12-18T05:18:43;101650.47;;;0.86;43.85
61055;BME280;46939;48.940;8.258;2022-12-18T05:21:14;101639.66;;;0.92;44.09
61055;BME280;46939;48.940;8.258;2022-12-18T05:23:43;101642.34;;;0.91;44.61
61055;BME280;46939;48.940;8.258;2022-12-18T05:26:15;101628.81;;;0.98;44.41
61055;BME280;46939;48.940;8.258;2022-12-18T05:28:45;101654.16;;;1.11;45.10
61055;BME280;46939;48.940;8.258;2022-12-18T05:31:13;101644.38;;;1.14;44.92
61055;BME280;46939;48.940;8.258;2022-12-18T05:33:42;101655.34;;;1.34;44.93
61055;BME280;46939;48.940;8.258;2022-12-18T05:36:10;101644.31;;;1.43;44.94
61055;BME280;46939;48.940;8.258;2022-12-18T05:38:41;101644.19;;;1.59;44.38
61055;BME280;46939;48.940;8.258;2022-12-18T05:41:10;101636.00;;;1.51;44.15
61055;BME280;46939;48.940;8.258;2022-12-18T05:43:39;101625.91;;;1.59;44.40
61055;BME280;46939;48.940;8.258;2022-12-18T05:46:10;101630.56;;;1.81;43.97
61055;BME280;46939;48.940;8.258;2022-12-18T05:48:43;101631.16;;;1.71;44.05
61055;BME280;46939;48.940;8.258;2022-12-18T05:51:18;101644.25;;;1.84;43.68
61055;BME280;46939;48.940;8.258;2022-12-18T05:53:49;101626.06;;;1.83;43.58
61055;BME280;46939;48.940;8.258;2022-12-18T05:56:19;101647.41;;;1.89;43.84
61055;BME280;46939;48.940;8.258;2022-12-18T05:58:51;101652.16;;;1.97;43.76
61055;BME280;46939;48.940;8.258;2022-12-18T06:01:21;101650.63;;;1.80;43.76
61055;BME280;46939;48.940;8.258;2022-12-18T06:03:50;101653.47;;;1.90;44.01
61055;BME280;46939;48.940;8.258;2022-12-18T06:06:20;101664.16;;;2.00;43.87
61055;BME280;46939;48.940;8.258;2022-12-18T06:08:52;101661.91;;;2.08;43.81
61055;BME280;46939;48.940;8.258;2022-12-18T06:11:22;101656.44;;;2.11;43.97
61055;BME280;46939;48.940;8.258;2022-12-18T06:13:52;101670.47;;;2.10;44.04
61055;BME280;46939;48.940;8.258;2022-12-18T06:16:22;101671.53;;;2.20;43.95
61055;BME280;46939;48.940;8.258;2022-12-18T06:18:50;101681.31;;;2.31;43.55
61055;BME280;46939;48.940;8.258;2022-12-18T06:21:19;101669.25;;;2.15;43.26
61055;BME280;46939;48.940;8.258;2022-12-18T06:23:47;101692.63;;;2.04;43.91
61055;BME280;46939;48.940;8.258;2022-12-18T06:26:18;101674.38;;;1.90;43.92
61055;BME280;46939;48.940;8.258;2022-12-18T06:28:47;101696.91;;;2.05;43.86
61055;BME280;46939;48.940;8.258;2022-12-18T06:31:15;101697.66;;;1.80;44.17
61055;BME280;46939;48.940;8.258;2022-12-18T06:33:44;101701.88;;;1.95;44.08
61055;BME280;46939;48.940;8.258;2022-12-18T06:36:13;101687.63;;;2.14;43.61
61055;BME280;46939;48.940;8.258;2022-12-18T06:38:43;101699.66;;;2.16;43.58
61055;BME280;46939;48.940;8.258;2022-12-18T06:41:14;101706.22;;;2.09;43.76
61055;BME280;46939;48.940;8.258;2022-12-18T06:43:45;101712.63;;;2.18;43.71
61055;BME280;46939;48.940;8.258;2022-12-18T06:46:17;101702.22;;;2.04;43.80
61055;BME280;46939;48.940;8.258;2022-12-18T06:48:47;101704.47;;;1.83;44.30
61055;BME280;46939;48.940;8.258;2022-12-18T06:51:30;101704.66;;;1.38;45.17
61055;BME280;46939;48.940;8.258;2022-12-18T06:54:04;101692.94;;;1.31;44.95
61055;BME280;46939;48.940;8.258;2022-12-18T06:56:36;101687.81;;;1.15;45.85
61055;BME280;46939;48.940;8.258;2022-12-18T06:59:13;101679.78;;;1.33;45.60
61055;BME280;46939;48.940;8.258;2022-12-18T07:01:42;101672.53;;;1.24;45.06
61055;BME280;46939;48.940;8.258;2022-12-18T07:04:10;101698.16;;;1.31;45.30
61055;BME280;46939;48.940;8.258;2022-12-18T07:06:39;101695.31;;;1.34;45.70
61055;BME280;46939;48.940;8.258;2022-12-18T07:09:07;101705.56;;;1.52;45.51
61055;BME280;46939;48.940;8.258;2022-12-18T07:11:35;101710.34;;;1.45;45.60
61055;BME280;46939;48.940;8.258;2022-12-18T07:14:04;101722.75;;;1.41;45.45
61055;BME280;46939;48.940;8.258;2022-12-18T07:16:35;101715.38;;;1.48;45.67
61055;BME280;46939;48.940;8.258;2022-12-18T07:19:03;101721.88;;;1.55;45.49
61055;BME280;46939;48.940;8.258;2022-12-18T07:21:32;101704.94;;;1.75;45.38
61055;BME280;46939;48.940;8.258;2022-12-18T07:24:00;101713.44;;;1.79;45.16
61055;BME280;46939;48.940;8.258;2022-12-18T07:26:28;101709.09;;;1.92;44.89
61055;BME280;46939;48.940;8.258;2022-12-18T07:28:57;101719.19;;;2.11;44.79
61055;BME280;46939;48.940;8.258;2022-12-18T07:31:26;101707.91;;;2.10;44.83
61055;BME280;46939;48.940;8.258;2022-12-18T07:33:57;101714.53;;;2.16;44.74
61055;BME280;46939;48.940;8.258;2022-12-18T07:36:25;101727.91;;;2.24;44.60
61055;BME280;46939;48.940;8.258;2022-12-18T07:39:14;101723.75;;;2.34;44.48
61055;BME280;46939;48.940;8.258;2022-12-18T07:41:43;101728.91;;;2.49;44.36
61055;BME280;46939;48.940;8.258;2022-12-18T07:44:31;101728.19;;;2.47;43.84
61055;BME280;46939;48.940;8.258;2022-12-18T07:46:59;101725.47;;;2.48;44.03
61055;BME280;46939;48.940;8.258;2022-12-18T07:49:33;101730.19;;;2.56;44.17
61055;BME280;46939;48.940;8.258;2022-12-18T07:52:01;101721.19;;;2.60;43.62
61055;BME280;46939;48.940;8.258;2022-12-18T07:54:33;101743.59;;;2.77;43.28
61055;BME280;46939;48.940;8.258;2022-12-18T07:57:01;101744.00;;;2.71;43.51
61055;BME280;46939;48.940;8.258;2022-12-18T07:59:30;101748.19;;;2.60;43.52
61055;BME280;46939;48.940;8.258;2022-12-18T08:01:58;101747.88;;;2.65;43.57
61055;BME280;46939;48.940;8.258;2022-12-18T08:04:26;101742.56;;;2.66;43.59
61055;BME280;46939;48.940;8.258;2022-12-18T08:07:00;101752.94;;;2.41;43.85
61055;BME280;46939;48.940;8.258;2022-12-18T08:09:28;101762.59;;;2.53;43.99
61055;BME280;46939;48.940;8.258;2022-12-18T08:11:59;101763.34;;;2.55;43.83
61055;BME280;46939;48.940;8.258;2022-12-18T08:14:28;101761.56;;;2.56;43.64
61055;BME280;46939;48.940;8.258;2022-12-18T08:16:56;101763.38;;;2.68;43.80
61055;BME280;46939;48.940;8.258;2022-12-18T08:19:25;101756.91;;;2.74;43.90
61055;BME280;46939;48.940;8.258;2022-12-18T08:21:55;101772.28;;;2.65;43.81
61055;BME280;46939;48.940;8.258;2022-12-18T08:24:26;101763.06;;;2.73;44.01
61055;BME280;46939;48.940;8.258;2022-12-18T08:26:54;101754.34;;;2.59;43.63
61055;BME280;46939;48.940;8.258;2022-12-18T08:29:25;101750.91;;;2.72;43.55
61055;BME280;46939;48.940;8.258;2022-12-18T08:31:53;101743.59;;;2.64;43.85
61055;BME280;46939;48.940;8.258;2022-12-18T08:34:21;101740.88;;;2.65;43.72
61055;BME280;46939;48.940;8.258;2022-12-18T08:36:50;101750.31;;;2.81;43.61
61055;BME280;46939;48.940;8.258;2022-12-18T08:39:18;101739.34;;;2.88;43.93
61055;BME280;46939;48.940;8.258;2022-12-18T08:41:49;101709.16;;;2.83;43.58
61055;BME280;46939;48.940;8.258;2022-12-18T08:44:29;101724.97;;;2.94;43.58
61055;BME280;46939;48.940;8.258;2022-12-18T08:47:07;101727.38;;;3.10;43.27
61055;BME280;46939;48.940;8.258;2022-12-18T08:49:36;101714.91;;;3.13;43.42
61055;BME280;46939;48.940;8.258;2022-12-18T08:52:04;101690.28;;;3.16;43.48
61055;BME280;46939;48.940;8.258;2022-12-18T08:54:33;101711.72;;;3.34;43.26
61055;BME280;46939;48.940;8.258;2022-12-18T08:57:05;101687.84;;;3.26;43.09
61055;BME280;46939;48.940;8.258;2022-12-18T08:59:34;101706.59;;;3.32;43.16
61055;BME280;46939;48.940;8.258;2022-12-18T09:02:05;101694.75;;;3.39;42.86
61055;BME280;46939;48.940;8.258;2022-12-18T09:04:34;101692.63;;;3.45;42.86
61055;BME280;46939;48.940;8.258;2022-12-18T09:07:02;101703.41;;;3.53;43.08
61055;BME280;46939;48.940;8.258;2022-12-18T09:09:32;101698.38;;;3.50;42.99
61055;BME280;46939;48.940;8.258;2022-12-18T09:12:04;101718.41;;;3.51;43.06
61055;BME280;46939;48.940;8.258;2022-12-18T09:14:32;101694.97;;;3.36;42.73
61055;BME280;46939;48.940;8.258;2022-12-18T09:17:01;101723.81;;;3.60;42.63
61055;BME280;46939;48.940;8.258;2022-12-18T09:19:29;101720.66;;;3.68;42.34
61055;BME280;46939;48.940;8.258;2022-12-18T09:21:58;101731.19;;;3.79;42.21
61055;BME280;46939;48.940;8.258;2022-12-18T09:24:26;101721.25;;;3.72;42.10
61055;BME280;46939;48.940;8.258;2022-12-18T09:26:54;101724.22;;;3.67;43.04
61055;BME280;46939;48.940;8.258;2022-12-18T09:29:26;101750.28;;;3.81;42.62
61055;BME280;46939;48.940;8.258;2022-12-18T09:31:54;101747.81;;;3.91;42.17
61055;BME280;46939;48.940;8.258;2022-12-18T09:34:23;101758.22;;;3.92;42.26
61055;BME280;46939;48.940;8.258;2022-12-18T09:36:51;101755.19;;;3.86;42.32
61055;BME280;46939;48.940;8.258;2022-12-18T09:39:20;101748.91;;;3.88;41.88
61055;BME280;46939;48.940;8.258;2022-12-18T09:41:51;101730.91;;;3.71;41.52
61055;BME280;46939;48.940;8.258;2022-12-18T09:44:39;101751.84;;;3.84;42.02
61055;BME280;46939;48.940;8.258;2022-12-18T09:47:12;101752.25;;;3.90;42.42
61055;BME280;46939;48.940;8.258;2022-12-18T09:49:44;101757.16;;;3.95;42.35
61055;BME280;46939;48.940;8.258;2022-12-18T09:52:19;101776.94;;;3.99;42.29
61055;BME280;46939;48.940;8.258;2022-12-18T09:54:55;101761.16;;;3.88;41.81
61055;BME280;46939;48.940;8.258;2022-12-18T09:57:25;101784.09;;;3.97;41.46
61055;BME280;46939;48.940;8.258;2022-12-18T09:59:59;101779.56;;;3.99;41.68
61055;BME280;46939;48.940;8.258;2022-12-18T10:02:31;101786.44;;;3.89;41.53
61055;BME280;46939;48.940;8.258;2022-12-18T10:05:05;101786.09;;;3.94;41.42
61055;BME280;46939;48.940;8.258;2022-12-18T10:07:43;101786.47;;;4.13;41.19
61055;BME280;46939;48.940;8.258;2022-12-18T10:10:23;101775.69;;;4.05;41.20
61055;BME280;46939;48.940;8.258;2022-12-18T10:12:59;101781.34;;;3.99;41.71
61055;BME280;46939;48.940;8.258;2022-12-18T10:15:37;101786.16;;;4.29;40.72
61055;BME280;46939;48.940;8.258;2022-12-18T10:18:19;101776.78;;;4.13;41.20
61055;BME280;46939;48.940;8.258;2022-12-18T10:20:52;101767.03;;;4.15;41.09
61055;BME280;46939;48.940;8.258;2022-12-18T10:23:27;101758.16;;;4.29;41.17
61055;BME280;46939;48.940;8.258;2022-12-18T10:26:01;101754.47;;;4.32;41.12
61055;BME280;46939;48.940;8.258;2022-12-18T10:28:32;101747.88;;;4.26;41.10
61055;BME280;46939;48.940;8.258;2022-12-18T10:31:05;101760.72;;;4.18;41.47
61055;BME280;46939;48.940;8.258;2022-12-18T10:33:34;101759.16;;;4.39;41.16
61055;BME280;46939;48.940;8.258;2022-12-18T10:36:03;101755.47;;;4.42;41.12
61055;BME280;46939;48.940;8.258;2022-12-18T10:38:32;101751.09;;;4.54;40.83
61055;BME280;46939;48.940;8.258;2022-12-18T10:41:02;101751.59;;;4.59;40.61
61055;BME280;46939;48.940;8.258;2022-12-18T10:43:31;101755.50;;;4.53;40.69
61055;BME280;46939;48.940;8.258;2022-12-18T10:46:14;101752.38;;;4.48;41.26
61055;BME280;46939;48.940;8.258;2022-12-18T10:48:52;101749.41;;;4.53;40.19
61055;BME280;46939;48.940;8.258;2022-12-18T10:51:23;101755.03;;;4.59;40.42
61055;BME280;46939;48.940;8.258;2022-12-18T10:53:55;101742.97;;;4.57;41.22
61055;BME280;46939;48.940;8.258;2022-12-18T10:56:27;101726.91;;;4.61;40.88
61055;BME280;46939;48.940;8.258;2022-12-18T10:58:58;101725.59;;;4.67;40.94
61055;BME280;46939;48.940;8.258;2022-12-18T11:01:46;101739.69;;;4.66;40.22
61055;BME280;46939;48.940;8.258;2022-12-18T11:04:19;101740.38;;;4.68;40.47
61055;BME280;46939;48.940;8.258;2022-12-18T11:06:55;101736.81;;;4.80;40.79
61055;BME280;46939;48.940;8.258;2022-12-18T11:09:25;101739.44;;;4.80;40.87
61055;BME280;46939;48.940;8.258;2022-12-18T11:11:56;101749.25;;;4.89;40.62
61055;BME280;46939;48.940;8.258;2022-12-18T11:14:27;101736.97;;;5.01;40.36
61055;BME280;46939;48.940;8.258;2022-12-18T11:16:59;101741.41;;;5.12;40.31
61055;BME280;46939;48.940;8.258;2022-12-18T11:19:33;101750.25;;;5.00;40.08
61055;BME280;46939;48.940;8.258;2022-12-18T11:22:18;101744.13;;;5.10;40.05
61055;BME280;46939;48.940;8.258;2022-12-18T11:24:53;101736.84;;;4.92;40.21
61055;BME280;46939;48.940;8.258;2022-12-18T11:27:23;101735.41;;;4.99;40.19
61055;BME280;46939;48.940;8.258;2022-12-18T11:29:52;101734.97;;;5.05;40.24
61055;BME280;46939;48.940;8.258;2022-12-18T11:32:33;101733.31;;;5.15;40.32
61055;BME280;46939;48.940;8.258;2022-12-18T11:35:11;101733.53;;;5.12;40.78
61055;BME280;46939;48.940;8.258;2022-12-18T11:37:47;101729.47;;;5.08;40.16
61055;BME280;46939;48.940;8.258;2022-12-18T11:40:17;101739.03;;;5.09;40.31
61055;BME280;46939;48.940;8.258;2022-12-18T11:42:49;101732.09;;;4.97;40.10
61055;BME280;46939;48.940;8.258;2022-12-18T11:45:28;101721.31;;;4.77;40.27
61055;BME280;46939;48.940;8.258;2022-12-18T11:48:03;101713.28;;;4.68;40.81
61055;BME280;46939;48.940;8.258;2022-12-18T11:50:42;101707.13;;;4.91;40.34
61055;BME280;46939;48.940;8.258;2022-12-18T11:53:12;101708.69;;;5.05;40.56
61055;BME280;46939;48.940;8.258;2022-12-18T11:55:47;101707.03;;;5.04;40.75
61055;BME280;46939;48.940;8.258;2022-12-18T11:58:27;101707.97;;;5.03;40.80
61055;BME280;46939;48.940;8.258;2022-12-18T12:01:05;101707.88;;;5.16;40.20
61055;BME280;46939;48.940;8.258;2022-12-18T12:04:09;101700.44;;;5.09;39.98
61055;BME280;46939;48.940;8.258;2022-12-18T12:06:49;101685.06;;;5.16;40.50
61055;BME280;46939;48.940;8.258;2022-12-18T12:09:26;101678.25;;;5.02;39.86
61055;BME280;46939;48.940;8.258;2022-12-18T12:12:10;101680.88;;;5.02;39.35
61055;BME280;46939;48.940;8.258;2022-12-18T12:14:51;101693.16;;;4.90;39.51
61055;BME280;46939;48.940;8.258;2022-12-18T12:17:33;101698.66;;;4.99;39.56
61055;BME280;46939;48.940;8.258;2022-12-18T12:20:13;101680.88;;;4.91;39.27
61055;BME280;46939;48.940;8.258;2022-12-18T12:30:13;101701.78;;;5.04;39.73
61055;BME280;46939;48.940;8.258;2022-12-18T12:33:15;101701.41;;;5.31;39.18
61055;BME280;46939;48.940;8.258;2022-12-18T12:43:52;101702.56;;;5.49;39.20
61055;BME280;46939;48.940;8.258;2022-12-18T12:46:24;101693.63;;;5.41;39.20
61055;BME280;46939;48.940;8.258;2022-12-18T12:48:55;101694.81;;;5.36;38.78
61055;BME280;46939;48.940;8.258;2022-12-18T12:51:27;101689.41;;;5.49;39.13
61055;BME280;46939;48.940;8.258;2022-12-18T12:53:58;101677.03;;;5.40;39.42
61055;BME280;46939;48.940;8.258;2022-12-18T12:56:36;101676.41;;;5.48;39.64
61055;BME280;46939;48.940;8.258;2022-12-18T12:59:13;101676.75;;;5.54;39.66
61055;BME280;46939;48.940;8.258;2022-12-18T13:01:51;101667.91;;;5.55;39.62
61055;BME280;46939;48.940;8.258;2022-12-18T13:04:31;101661.59;;;5.47;39.64
61055;BME280;46939;48.940;8.258;2022-12-18T13:07:06;101649.28;;;5.58;39.92
61055;BME280;46939;48.940;8.258;2022-12-18T13:12:55;101636.97;;;5.59;39.95
61055;BME280;46939;48.940;8.258;2022-12-18T13:15:27;101623.94;;;5.57;39.85
61055;BME280;46939;48.940;8.258;2022-12-18T13:18:05;101621.88;;;5.61;39.86
61055;BME280;46939;48.940;8.258;2022-12-18T13:20:35;101624.66;;;5.59;39.82
61055;BME280;46939;48.940;8.258;2022-12-18T13:23:23;101625.47;;;5.60;39.77
61055;BME280;46939;48.940;8.258;2022-12-18T13:25:54;101618.19;;;5.63;39.93
61055;BME280;46939;48.940;8.258;2022-12-18T13:28:26;101602.41;;;5.63;39.29
61055;BME280;46939;48.940;8.258;2022-12-18T13:34:19;101616.84;;;5.69;39.58
61055;BME280;46939;48.940;8.258;2022-12-18T13:36:49;101609.47;;;5.63;39.64
61055;BME280;46939;48.940;8.258;2022-12-18T13:39:31;101614.06;;;5.50;39.67
61055;BME280;46939;48.940;8.258;2022-12-18T13:45:34;101614.16;;;5.48;40.04
61055;BME280;46939;48.940;8.258;2022-12-18T13:48:15;101603.03;;;5.56;39.79